sensor_id;sensor_type;location;lat;lon;timestamp;P1;durP1;ratioP1;P2;durP2;ratioP2
44822;SDS011;51097;51.984;5.650;2022-10-29T00:01:13;17.05;;;6.28;;
44822;SDS011;51097;51.984;5.650;2022-10-29T00:03:39;16.27;;;5.80;;
44822;SDS011;51097;51.984;5.650;2022-10-29T00:06:06;14.93;;;5.03;;
44822;SDS011;51097;51.984;5.650;2022-10-29T00:08:34;14.65;;;5.82;;
44822;SDS011;51097;51.984;5.650;2022-10-29T00:11:08;19.20;;;7.07;;
44822;SDS011;51097;51.984;5.650;2022-10-29T00:13:35;15.25;;;6.95;;
44822;SDS011;51097;51.984;5.650;2022-10-29T00:16:07;20.25;;;6.40;;
44822;SDS011;51097;51.984;5.650;2022-10-29T00:18:38;13.57;;;6.05;;
44822;SDS011;51097;51.984;5.650;2022-10-29T00:21:05;21.80;;;6.93;;
44822;SDS011;51097;51.984;5.650;2022-10-29T00:23:32;18.88;;;7.00;;
44822;SDS011;51097;51.984;5.650;2022-10-29T00:25:59;18.10;;;7.40;;
44822;SDS011;51097;51.984;5.650;2022-10-29T00:28:25;18.45;;;9.55;;
44822;SDS011;51097;51.984;5.650;2022-10-29T00:30:52;15.80;;;7.60;;
44822;SDS011;51097;51.984;5.650;2022-10-29T00:33:18;19.65;;;7.72;;
44822;SDS011;51097;51.984;5.650;2022-10-29T00:35:56;19.58;;;7.72;;
44822;SDS011;51097;51.984;5.650;2022-10-29T00:38:23;19.30;;;7.93;;
44822;SDS011;51097;51.984;5.650;2022-10-29T00:40:50;24.35;;;9.15;;
44822;SDS011;51097;51.984;5.650;2022-10-29T00:43:17;16.02;;;7.80;;
44822;SDS011;51097;51.984;5.650;2022-10-29T00:45:54;13.50;;;7.60;;
44822;SDS011;51097;51.984;5.650;2022-10-29T00:48:27;26.23;;;9.68;;
44822;SDS011;51097;51.984;5.650;2022-10-29T00:50:57;12.70;;;7.25;;
44822;SDS011;51097;51.984;5.650;2022-10-29T00:53:25;18.95;;;8.70;;
44822;SDS011;51097;51.984;5.650;2022-10-29T00:55:54;16.45;;;7.47;;
44822;SDS011;51097;51.984;5.650;2022-10-29T00:58:20;14.95;;;8.60;;
44822;SDS011;51097;51.984;5.650;2022-10-29T01:00:46;16.48;;;7.95;;
44822;SDS011;51097;51.984;5.650;2022-10-29T01:03:11;13.02;;;7.88;;
44822;SDS011;51097;51.984;5.650;2022-10-29T01:05:37;16.17;;;8.25;;
44822;SDS011;51097;51.984;5.650;2022-10-29T01:08:04;14.98;;;8.38;;
44822;SDS011;51097;51.984;5.650;2022-10-29T01:10:50;17.83;;;8.57;;
44822;SDS011;51097;51.984;5.650;2022-10-29T01:13:33;18.52;;;8.65;;
44822;SDS011;51097;51.984;5.650;2022-10-29T01:18:51;16.75;;;8.48;;
44822;SDS011;51097;51.984;5.650;2022-10-29T01:21:39;20.42;;;9.13;;
44822;SDS011;51097;51.984;5.650;2022-10-29T01:29:33;19.80;;;9.93;;
44822;SDS011;51097;51.984;5.650;2022-10-29T01:35:16;23.67;;;12.03;;
44822;SDS011;51097;51.984;5.650;2022-10-29T01:38:00;21.42;;;10.52;;
44822;SDS011;51097;51.984;5.650;2022-10-29T01:40:32;22.00;;;12.25;;
44822;SDS011;51097;51.984;5.650;2022-10-29T01:43:06;25.48;;;12.10;;
44822;SDS011;51097;51.984;5.650;2022-10-29T01:45:39;29.98;;;13.77;;
44822;SDS011;51097;51.984;5.650;2022-10-29T01:48:12;24.63;;;14.40;;
44822;SDS011;51097;51.984;5.650;2022-10-29T01:50:43;34.58;;;15.18;;
44822;SDS011;51097;51.984;5.650;2022-10-29T01:53:13;24.40;;;14.32;;
44822;SDS011;51097;51.984;5.650;2022-10-29T01:55:40;22.92;;;13.50;;
44822;SDS011;51097;51.984;5.650;2022-10-29T01:58:07;22.88;;;13.93;;
44822;SDS011;51097;51.984;5.650;2022-10-29T02:00:36;19.25;;;12.07;;
44822;SDS011;51097;51.984;5.650;2022-10-29T02:03:19;30.55;;;14.20;;
44822;SDS011;51097;51.984;5.650;2022-10-29T02:05:55;24.67;;;13.60;;
44822;SDS011;51097;51.984;5.650;2022-10-29T02:11:41;25.20;;;14.07;;
44822;SDS011;51097;51.984;5.650;2022-10-29T02:14:37;18.55;;;13.00;;
44822;SDS011;51097;51.984;5.650;2022-10-29T02:17:07;23.42;;;14.25;;
44822;SDS011;51097;51.984;5.650;2022-10-29T02:19:33;30.02;;;15.85;;
44822;SDS011;51097;51.984;5.650;2022-10-29T02:22:00;34.75;;;15.43;;
44822;SDS011;51097;51.984;5.650;2022-10-29T02:24:25;28.63;;;17.55;;
44822;SDS011;51097;51.984;5.650;2022-10-29T02:26:51;30.02;;;17.13;;
44822;SDS011;51097;51.984;5.650;2022-10-29T02:29:17;29.38;;;15.15;;
44822;SDS011;51097;51.984;5.650;2022-10-29T02:31:43;25.05;;;15.88;;
44822;SDS011;51097;51.984;5.650;2022-10-29T02:34:09;21.50;;;15.85;;
44822;SDS011;51097;51.984;5.650;2022-10-29T02:36:35;27.40;;;15.95;;
44822;SDS011;51097;51.984;5.650;2022-10-29T02:39:00;25.67;;;15.57;;
44822;SDS011;51097;51.984;5.650;2022-10-29T02:41:26;22.08;;;14.82;;
44822;SDS011;51097;51.984;5.650;2022-10-29T02:43:51;26.33;;;14.95;;
44822;SDS011;51097;51.984;5.650;2022-10-29T02:46:18;23.55;;;15.27;;
44822;SDS011;51097;51.984;5.650;2022-10-29T02:48:45;24.38;;;14.27;;
44822;SDS011;51097;51.984;5.650;2022-10-29T02:51:11;20.05;;;15.90;;
44822;SDS011;51097;51.984;5.650;2022-10-29T02:53:37;23.48;;;14.95;;
44822;SDS011;51097;51.984;5.650;2022-10-29T02:56:03;18.33;;;12.93;;
44822;SDS011;51097;51.984;5.650;2022-10-29T02:58:30;20.08;;;14.57;;
44822;SDS011;51097;51.984;5.650;2022-10-29T03:00:56;24.80;;;15.30;;
44822;SDS011;51097;51.984;5.650;2022-10-29T03:03:22;24.73;;;15.35;;
44822;SDS011;51097;51.984;5.650;2022-10-29T03:05:49;24.60;;;15.48;;
44822;SDS011;51097;51.984;5.650;2022-10-29T03:08:15;22.63;;;15.23;;
44822;SDS011;51097;51.984;5.650;2022-10-29T03:10:41;23.92;;;16.85;;
44822;SDS011;51097;51.984;5.650;2022-10-29T03:13:07;25.02;;;14.98;;
44822;SDS011;51097;51.984;5.650;2022-10-29T03:15:32;24.50;;;16.85;;
44822;SDS011;51097;51.984;5.650;2022-10-29T03:17:58;31.88;;;18.38;;
44822;SDS011;51097;51.984;5.650;2022-10-29T03:20:23;30.13;;;18.05;;
44822;SDS011;51097;51.984;5.650;2022-10-29T03:22:49;25.58;;;17.40;;
44822;SDS011;51097;51.984;5.650;2022-10-29T03:25:14;28.65;;;17.95;;
44822;SDS011;51097;51.984;5.650;2022-10-29T03:27:43;31.05;;;18.20;;
44822;SDS011;51097;51.984;5.650;2022-10-29T03:30:14;34.95;;;18.45;;
44822;SDS011;51097;51.984;5.650;2022-10-29T03:32:41;32.88;;;19.65;;
44822;SDS011;51097;51.984;5.650;2022-10-29T03:35:08;32.17;;;20.80;;
44822;SDS011;51097;51.984;5.650;2022-10-29T03:37:36;33.58;;;20.05;;
44822;SDS011;51097;51.984;5.650;2022-10-29T03:40:02;34.67;;;19.00;;
44822;SDS011;51097;51.984;5.650;2022-10-29T03:42:28;28.95;;;20.20;;
44822;SDS011;51097;51.984;5.650;2022-10-29T03:44:57;27.23;;;18.25;;
44822;SDS011;51097;51.984;5.650;2022-10-29T03:47:23;27.85;;;18.15;;
44822;SDS011;51097;51.984;5.650;2022-10-29T03:49:49;26.45;;;18.10;;
44822;SDS011;51097;51.984;5.650;2022-10-29T03:52:14;25.60;;;16.70;;
44822;SDS011;51097;51.984;5.650;2022-10-29T03:54:40;33.78;;;18.95;;
44822;SDS011;51097;51.984;5.650;2022-10-29T03:57:05;27.60;;;18.83;;
44822;SDS011;51097;51.984;5.650;2022-10-29T03:59:31;31.73;;;19.08;;
44822;SDS011;51097;51.984;5.650;2022-10-29T04:01:56;29.55;;;19.08;;
44822;SDS011;51097;51.984;5.650;2022-10-29T04:04:22;27.70;;;17.88;;
44822;SDS011;51097;51.984;5.650;2022-10-29T04:06:47;29.23;;;18.70;;
44822;SDS011;51097;51.984;5.650;2022-10-29T04:09:13;30.58;;;18.63;;
44822;SDS011;51097;51.984;5.650;2022-10-29T04:11:39;33.25;;;17.75;;
44822;SDS011;51097;51.984;5.650;2022-10-29T04:14:04;25.35;;;17.63;;
44822;SDS011;51097;51.984;5.650;2022-10-29T04:16:30;29.25;;;18.70;;
44822;SDS011;51097;51.984;5.650;2022-10-29T04:18:55;33.22;;;20.42;;
44822;SDS011;51097;51.984;5.650;2022-10-29T04:21:21;38.42;;;20.67;;
44822;SDS011;51097;51.984;5.650;2022-10-29T04:23:47;33.50;;;20.95;;
44822;SDS011;51097;51.984;5.650;2022-10-29T04:26:13;31.60;;;20.08;;
44822;SDS011;51097;51.984;5.650;2022-10-29T04:28:38;34.25;;;22.55;;
44822;SDS011;51097;51.984;5.650;2022-10-29T04:31:05;32.00;;;21.63;;
44822;SDS011;51097;51.984;5.650;2022-10-29T04:33:31;37.83;;;23.13;;
44822;SDS011;51097;51.984;5.650;2022-10-29T04:35:56;44.83;;;24.70;;
44822;SDS011;51097;51.984;5.650;2022-10-29T04:38:22;40.08;;;25.05;;
44822;SDS011;51097;51.984;5.650;2022-10-29T04:40:47;42.33;;;25.75;;
44822;SDS011;51097;51.984;5.650;2022-10-29T04:43:13;41.65;;;26.63;;
44822;SDS011;51097;51.984;5.650;2022-10-29T04:45:39;42.45;;;26.58;;
44822;SDS011;51097;51.984;5.650;2022-10-29T04:48:05;42.88;;;24.60;;
44822;SDS011;51097;51.984;5.650;2022-10-29T04:50:31;35.10;;;23.60;;
44822;SDS011;51097;51.984;5.650;2022-10-29T04:52:58;34.55;;;23.40;;
44822;SDS011;51097;51.984;5.650;2022-10-29T04:55:28;37.30;;;24.92;;
44822;SDS011;51097;51.984;5.650;2022-10-29T04:57:54;41.30;;;24.40;;
44822;SDS011;51097;51.984;5.650;2022-10-29T05:00:20;40.97;;;24.83;;
44822;SDS011;51097;51.984;5.650;2022-10-29T05:02:50;42.35;;;24.50;;
44822;SDS011;51097;51.984;5.650;2022-10-29T05:05:17;34.55;;;22.73;;
44822;SDS011;51097;51.984;5.650;2022-10-29T05:07:44;43.53;;;23.00;;
44822;SDS011;51097;51.984;5.650;2022-10-29T05:10:10;36.30;;;22.95;;
44822;SDS011;51097;51.984;5.650;2022-10-29T05:12:36;36.55;;;22.40;;
44822;SDS011;51097;51.984;5.650;2022-10-29T05:15:04;43.72;;;23.95;;
44822;SDS011;51097;51.984;5.650;2022-10-29T05:17:30;41.88;;;24.95;;
44822;SDS011;51097;51.984;5.650;2022-10-29T05:20:00;40.80;;;24.63;;
44822;SDS011;51097;51.984;5.650;2022-10-29T05:22:25;41.17;;;23.85;;
44822;SDS011;51097;51.984;5.650;2022-10-29T05:24:51;39.17;;;24.42;;
44822;SDS011;51097;51.984;5.650;2022-10-29T05:27:16;41.15;;;23.35;;
44822;SDS011;51097;51.984;5.650;2022-10-29T05:29:42;40.10;;;24.20;;
44822;SDS011;51097;51.984;5.650;2022-10-29T05:32:08;32.28;;;22.27;;
44822;SDS011;51097;51.984;5.650;2022-10-29T05:34:33;32.58;;;21.95;;
44822;SDS011;51097;51.984;5.650;2022-10-29T05:36:59;36.80;;;23.63;;
44822;SDS011;51097;51.984;5.650;2022-10-29T05:41:54;37.30;;;22.60;;
44822;SDS011;51097;51.984;5.650;2022-10-29T05:44:20;38.92;;;21.38;;
44822;SDS011;51097;51.984;5.650;2022-10-29T05:46:49;32.55;;;21.50;;
44822;SDS011;51097;51.984;5.650;2022-10-29T05:49:19;36.95;;;21.75;;
44822;SDS011;51097;51.984;5.650;2022-10-29T05:51:44;32.60;;;22.95;;
44822;SDS011;51097;51.984;5.650;2022-10-29T05:54:10;41.95;;;23.90;;
44822;SDS011;51097;51.984;5.650;2022-10-29T05:56:35;34.92;;;21.45;;
44822;SDS011;51097;51.984;5.650;2022-10-29T05:59:01;35.78;;;22.77;;
44822;SDS011;51097;51.984;5.650;2022-10-29T06:01:27;40.05;;;22.92;;
44822;SDS011;51097;51.984;5.650;2022-10-29T06:03:52;38.05;;;22.52;;
44822;SDS011;51097;51.984;5.650;2022-10-29T06:06:18;35.83;;;21.58;;
44822;SDS011;51097;51.984;5.650;2022-10-29T06:08:43;41.08;;;21.27;;
44822;SDS011;51097;51.984;5.650;2022-10-29T06:11:09;42.47;;;23.13;;
44822;SDS011;51097;51.984;5.650;2022-10-29T06:13:34;44.25;;;22.75;;
44822;SDS011;51097;51.984;5.650;2022-10-29T06:16:00;33.75;;;21.85;;
44822;SDS011;51097;51.984;5.650;2022-10-29T06:18:26;43.35;;;22.58;;
44822;SDS011;51097;51.984;5.650;2022-10-29T06:20:53;41.95;;;23.27;;
44822;SDS011;51097;51.984;5.650;2022-10-29T06:23:21;36.65;;;23.27;;
44822;SDS011;51097;51.984;5.650;2022-10-29T06:25:46;41.50;;;23.83;;
44822;SDS011;51097;51.984;5.650;2022-10-29T06:28:12;37.60;;;22.92;;
44822;SDS011;51097;51.984;5.650;2022-10-29T06:30:39;36.70;;;22.45;;
44822;SDS011;51097;51.984;5.650;2022-10-29T06:33:05;34.08;;;22.25;;
44822;SDS011;51097;51.984;5.650;2022-10-29T06:35:32;36.13;;;21.65;;
44822;SDS011;51097;51.984;5.650;2022-10-29T06:37:57;29.73;;;21.88;;
44822;SDS011;51097;51.984;5.650;2022-10-29T06:40:23;35.92;;;22.20;;
44822;SDS011;51097;51.984;5.650;2022-10-29T06:42:54;29.77;;;21.15;;
44822;SDS011;51097;51.984;5.650;2022-10-29T06:45:26;30.25;;;21.13;;
44822;SDS011;51097;51.984;5.650;2022-10-29T06:47:52;31.48;;;21.00;;
44822;SDS011;51097;51.984;5.650;2022-10-29T06:50:17;34.30;;;21.10;;
44822;SDS011;51097;51.984;5.650;2022-10-29T06:52:51;33.17;;;19.00;;
44822;SDS011;51097;51.984;5.650;2022-10-29T06:55:24;35.50;;;22.05;;
44822;SDS011;51097;51.984;5.650;2022-10-29T06:57:57;25.98;;;17.55;;
44822;SDS011;51097;51.984;5.650;2022-10-29T07:00:23;25.70;;;17.27;;
44822;SDS011;51097;51.984;5.650;2022-10-29T07:02:49;26.67;;;18.05;;
44822;SDS011;51097;51.984;5.650;2022-10-29T07:05:15;24.08;;;17.77;;
44822;SDS011;51097;51.984;5.650;2022-10-29T07:07:40;30.73;;;17.25;;
44822;SDS011;51097;51.984;5.650;2022-10-29T07:10:06;28.13;;;18.48;;
44822;SDS011;51097;51.984;5.650;2022-10-29T07:12:37;29.75;;;20.20;;
44822;SDS011;51097;51.984;5.650;2022-10-29T07:15:07;30.88;;;17.80;;
44822;SDS011;51097;51.984;5.650;2022-10-29T07:17:33;27.30;;;18.00;;
44822;SDS011;51097;51.984;5.650;2022-10-29T07:19:58;37.35;;;18.77;;
44822;SDS011;51097;51.984;5.650;2022-10-29T07:22:24;27.10;;;18.20;;
44822;SDS011;51097;51.984;5.650;2022-10-29T07:24:49;31.25;;;19.42;;
44822;SDS011;51097;51.984;5.650;2022-10-29T07:27:15;24.08;;;18.05;;
44822;SDS011;51097;51.984;5.650;2022-10-29T07:29:41;34.58;;;19.88;;
44822;SDS011;51097;51.984;5.650;2022-10-29T07:32:06;33.25;;;20.33;;
44822;SDS011;51097;51.984;5.650;2022-10-29T07:34:32;31.70;;;17.88;;
44822;SDS011;51097;51.984;5.650;2022-10-29T07:36:57;28.15;;;20.13;;
44822;SDS011;51097;51.984;5.650;2022-10-29T07:39:23;32.45;;;20.15;;
44822;SDS011;51097;51.984;5.650;2022-10-29T07:41:48;48.83;;;23.02;;
44822;SDS011;51097;51.984;5.650;2022-10-29T07:44:14;37.15;;;20.42;;
44822;SDS011;51097;51.984;5.650;2022-10-29T07:46:39;33.50;;;19.38;;
44822;SDS011;51097;51.984;5.650;2022-10-29T07:49:05;36.28;;;19.92;;
44822;SDS011;51097;51.984;5.650;2022-10-29T07:51:30;32.20;;;20.77;;
44822;SDS011;51097;51.984;5.650;2022-10-29T07:53:56;30.70;;;20.35;;
44822;SDS011;51097;51.984;5.650;2022-10-29T07:56:22;38.10;;;21.67;;
44822;SDS011;51097;51.984;5.650;2022-10-29T07:58:47;36.08;;;21.60;;
44822;SDS011;51097;51.984;5.650;2022-10-29T08:01:13;30.98;;;21.05;;
44822;SDS011;51097;51.984;5.650;2022-10-29T08:03:38;40.83;;;22.05;;
44822;SDS011;51097;51.984;5.650;2022-10-29T08:06:04;34.00;;;21.20;;
44822;SDS011;51097;51.984;5.650;2022-10-29T08:08:29;39.08;;;22.85;;
44822;SDS011;51097;51.984;5.650;2022-10-29T08:10:59;33.72;;;21.70;;
44822;SDS011;51097;51.984;5.650;2022-10-29T08:13:25;32.20;;;22.13;;
44822;SDS011;51097;51.984;5.650;2022-10-29T08:15:51;36.53;;;21.60;;
44822;SDS011;51097;51.984;5.650;2022-10-29T08:18:17;38.72;;;20.98;;
44822;SDS011;51097;51.984;5.650;2022-10-29T08:20:42;34.63;;;20.92;;
44822;SDS011;51097;51.984;5.650;2022-10-29T08:23:08;32.03;;;21.15;;
44822;SDS011;51097;51.984;5.650;2022-10-29T08:25:34;32.95;;;21.80;;
44822;SDS011;51097;51.984;5.650;2022-10-29T08:28:05;37.33;;;22.02;;
44822;SDS011;51097;51.984;5.650;2022-10-29T08:30:32;38.55;;;22.48;;
44822;SDS011;51097;51.984;5.650;2022-10-29T08:32:57;35.53;;;20.95;;
44822;SDS011;51097;51.984;5.650;2022-10-29T08:35:23;35.63;;;21.77;;
44822;SDS011;51097;51.984;5.650;2022-10-29T08:37:48;33.83;;;20.77;;
44822;SDS011;51097;51.984;5.650;2022-10-29T08:42:49;33.58;;;20.38;;
44822;SDS011;51097;51.984;5.650;2022-10-29T08:45:44;29.77;;;18.83;;
44822;SDS011;51097;51.984;5.650;2022-10-29T08:53:23;32.42;;;17.95;;
44822;SDS011;51097;51.984;5.650;2022-10-29T08:55:58;26.55;;;18.67;;
44822;SDS011;51097;51.984;5.650;2022-10-29T08:58:40;26.27;;;17.52;;
44822;SDS011;51097;51.984;5.650;2022-10-29T09:01:19;29.73;;;17.85;;
44822;SDS011;51097;51.984;5.650;2022-10-29T09:03:46;23.98;;;15.75;;
44822;SDS011;51097;51.984;5.650;2022-10-29T09:06:13;24.33;;;15.90;;
44822;SDS011;51097;51.984;5.650;2022-10-29T09:09:01;24.95;;;16.27;;
44822;SDS011;51097;51.984;5.650;2022-10-29T09:12:00;23.33;;;16.50;;
44822;SDS011;51097;51.984;5.650;2022-10-29T09:15:25;24.27;;;16.02;;
44822;SDS011;51097;51.984;5.650;2022-10-29T09:26:01;26.55;;;15.98;;
44822;SDS011;51097;51.984;5.650;2022-10-29T09:33:46;29.30;;;15.82;;
44822;SDS011;51097;51.984;5.650;2022-10-29T09:36:18;23.15;;;14.27;;
44822;SDS011;51097;51.984;5.650;2022-10-29T09:38:56;24.40;;;14.20;;
44822;SDS011;51097;51.984;5.650;2022-10-29T09:41:28;22.50;;;12.95;;
44822;SDS011;51097;51.984;5.650;2022-10-29T09:43:58;22.50;;;13.75;;
44822;SDS011;51097;51.984;5.650;2022-10-29T09:51:48;19.15;;;12.63;;
44822;SDS011;51097;51.984;5.650;2022-10-29T09:54:19;22.88;;;12.32;;
44822;SDS011;51097;51.984;5.650;2022-10-29T09:56:46;19.10;;;12.13;;
44822;SDS011;51097;51.984;5.650;2022-10-29T10:01:52;20.25;;;12.15;;
44822;SDS011;51097;51.984;5.650;2022-10-29T10:04:31;24.98;;;15.35;;
44822;SDS011;51097;51.984;5.650;2022-10-29T10:07:08;20.05;;;12.82;;
44822;SDS011;51097;51.984;5.650;2022-10-29T10:09:48;19.65;;;12.52;;
44822;SDS011;51097;51.984;5.650;2022-10-29T10:12:15;24.95;;;13.80;;
44822;SDS011;51097;51.984;5.650;2022-10-29T10:14:41;16.33;;;12.93;;
44822;SDS011;51097;51.984;5.650;2022-10-29T10:17:07;19.77;;;13.77;;
44822;SDS011;51097;51.984;5.650;2022-10-29T10:19:32;24.25;;;12.32;;
44822;SDS011;51097;51.984;5.650;2022-10-29T10:22:02;18.83;;;12.20;;
44822;SDS011;51097;51.984;5.650;2022-10-29T10:24:36;17.80;;;13.05;;
44822;SDS011;51097;51.984;5.650;2022-10-29T10:29:43;16.52;;;11.35;;
44822;SDS011;51097;51.984;5.650;2022-10-29T10:32:29;22.20;;;12.80;;
44822;SDS011;51097;51.984;5.650;2022-10-29T10:34:55;23.63;;;13.57;;
44822;SDS011;51097;51.984;5.650;2022-10-29T10:37:20;23.48;;;12.85;;
44822;SDS011;51097;51.984;5.650;2022-10-29T10:39:48;24.38;;;12.52;;
44822;SDS011;51097;51.984;5.650;2022-10-29T10:42:21;25.33;;;12.57;;
44822;SDS011;51097;51.984;5.650;2022-10-29T10:44:49;22.48;;;12.40;;
44822;SDS011;51097;51.984;5.650;2022-10-29T10:47:20;25.15;;;13.27;;
44822;SDS011;51097;51.984;5.650;2022-10-29T10:49:50;19.23;;;12.45;;
44822;SDS011;51097;51.984;5.650;2022-10-29T10:52:29;22.05;;;12.40;;
44822;SDS011;51097;51.984;5.650;2022-10-29T10:57:26;18.95;;;12.38;;
44822;SDS011;51097;51.984;5.650;2022-10-29T11:00:02;17.63;;;11.38;;
44822;SDS011;51097;51.984;5.650;2022-10-29T11:08:29;23.45;;;13.35;;
44822;SDS011;51097;51.984;5.650;2022-10-29T11:10:33;21.27;;;13.25;;
44822;SDS011;51097;51.984;5.650;2022-10-29T11:13:05;22.10;;;12.80;;
44822;SDS011;51097;51.984;5.650;2022-10-29T11:18:17;16.70;;;11.55;;
44822;SDS011;51097;51.984;5.650;2022-10-29T11:21:02;19.95;;;12.20;;
44822;SDS011;51097;51.984;5.650;2022-10-29T11:23:45;21.83;;;12.27;;
44822;SDS011;51097;51.984;5.650;2022-10-29T11:26:24;17.42;;;12.10;;
44822;SDS011;51097;51.984;5.650;2022-10-29T11:32:11;23.38;;;12.10;;
44822;SDS011;51097;51.984;5.650;2022-10-29T11:37:43;16.70;;;11.73;;
44822;SDS011;51097;51.984;5.650;2022-10-29T11:40:20;22.30;;;11.90;;
44822;SDS011;51097;51.984;5.650;2022-10-29T11:42:48;26.98;;;12.65;;
44822;SDS011;51097;51.984;5.650;2022-10-29T11:45:16;25.17;;;12.15;;
44822;SDS011;51097;51.984;5.650;2022-10-29T11:47:57;19.58;;;11.02;;
44822;SDS011;51097;51.984;5.650;2022-10-29T11:50:38;23.23;;;11.52;;
44822;SDS011;51097;51.984;5.650;2022-10-29T11:58:15;18.10;;;10.00;;
44822;SDS011;51097;51.984;5.650;2022-10-29T12:01:08;22.83;;;11.15;;
44822;SDS011;51097;51.984;5.650;2022-10-29T12:03:58;26.88;;;11.52;;
44822;SDS011;51097;51.984;5.650;2022-10-29T12:10:20;17.48;;;12.93;;
44822;SDS011;51097;51.984;5.650;2022-10-29T12:13:16;19.13;;;11.35;;
44822;SDS011;51097;51.984;5.650;2022-10-29T12:19:36;17.80;;;8.77;;
44822;SDS011;51097;51.984;5.650;2022-10-29T12:21:53;18.85;;;9.07;;
44822;SDS011;51097;51.984;5.650;2022-10-29T12:30:14;19.67;;;10.40;;
44822;SDS011;51097;51.984;5.650;2022-10-29T12:38:23;16.73;;;10.23;;
44822;SDS011;51097;51.984;5.650;2022-10-29T12:41:24;21.20;;;11.43;;
44822;SDS011;51097;51.984;5.650;2022-10-29T12:44:42;21.17;;;12.85;;
44822;SDS011;51097;51.984;5.650;2022-10-29T12:47:30;23.15;;;10.18;;
44822;SDS011;51097;51.984;5.650;2022-10-29T12:52:15;19.90;;;11.18;;
44822;SDS011;51097;51.984;5.650;2022-10-29T12:54:54;14.55;;;10.10;;
44822;SDS011;51097;51.984;5.650;2022-10-29T13:02:47;17.85;;;10.18;;
44822;SDS011;51097;51.984;5.650;2022-10-29T13:05:17;17.60;;;9.85;;
44822;SDS011;51097;51.984;5.650;2022-10-29T13:13:01;15.27;;;10.60;;
44822;SDS011;51097;51.984;5.650;2022-10-29T13:15:41;19.65;;;10.20;;
44822;SDS011;51097;51.984;5.650;2022-10-29T13:20:40;17.55;;;10.15;;
44822;SDS011;51097;51.984;5.650;2022-10-29T13:25:46;18.13;;;10.43;;
44822;SDS011;51097;51.984;5.650;2022-10-29T13:30:39;20.48;;;9.80;;
44822;SDS011;51097;51.984;5.650;2022-10-29T13:33:51;17.00;;;9.27;;
44822;SDS011;51097;51.984;5.650;2022-10-29T13:35:52;17.20;;;9.82;;
44822;SDS011;51097;51.984;5.650;2022-10-29T13:41:15;23.30;;;9.75;;
44822;SDS011;51097;51.984;5.650;2022-10-29T13:43:52;17.63;;;8.98;;
44822;SDS011;51097;51.984;5.650;2022-10-29T13:52:03;20.50;;;10.27;;
44822;SDS011;51097;51.984;5.650;2022-10-29T13:57:25;12.68;;;8.70;;
44822;SDS011;51097;51.984;5.650;2022-10-29T14:07:41;24.95;;;8.95;;
44822;SDS011;51097;51.984;5.650;2022-10-29T14:10:19;13.82;;;10.00;;
44822;SDS011;51097;51.984;5.650;2022-10-29T14:12:50;20.42;;;10.57;;
44822;SDS011;51097;51.984;5.650;2022-10-29T14:15:20;16.98;;;8.30;;
44822;SDS011;51097;51.984;5.650;2022-10-29T14:17:46;19.45;;;9.35;;
44822;SDS011;51097;51.984;5.650;2022-10-29T14:20:22;16.83;;;9.30;;
44822;SDS011;51097;51.984;5.650;2022-10-29T14:22:52;17.95;;;8.40;;
44822;SDS011;51097;51.984;5.650;2022-10-29T14:30:42;19.63;;;9.13;;
44822;SDS011;51097;51.984;5.650;2022-10-29T14:33:22;22.77;;;10.10;;
44822;SDS011;51097;51.984;5.650;2022-10-29T14:35:50;14.38;;;8.63;;
44822;SDS011;51097;51.984;5.650;2022-10-29T14:38:19;18.52;;;9.32;;
44822;SDS011;51097;51.984;5.650;2022-10-29T14:40:47;18.07;;;9.57;;
44822;SDS011;51097;51.984;5.650;2022-10-29T14:43:21;24.02;;;9.73;;
44822;SDS011;51097;51.984;5.650;2022-10-29T14:45:49;12.98;;;8.43;;
44822;SDS011;51097;51.984;5.650;2022-10-29T14:48:16;27.58;;;10.13;;
44822;SDS011;51097;51.984;5.650;2022-10-29T14:50:43;12.27;;;8.38;;
44822;SDS011;51097;51.984;5.650;2022-10-29T14:55:57;20.65;;;8.98;;
44822;SDS011;51097;51.984;5.650;2022-10-29T14:58:25;17.65;;;9.05;;
44822;SDS011;51097;51.984;5.650;2022-10-29T15:00:54;19.75;;;9.77;;
44822;SDS011;51097;51.984;5.650;2022-10-29T15:03:22;16.63;;;8.27;;
44822;SDS011;51097;51.984;5.650;2022-10-29T15:06:06;22.33;;;8.95;;
44822;SDS011;51097;51.984;5.650;2022-10-29T15:08:44;18.70;;;8.70;;
44822;SDS011;51097;51.984;5.650;2022-10-29T15:11:29;19.17;;;9.43;;
44822;SDS011;51097;51.984;5.650;2022-10-29T15:14:04;17.27;;;8.55;;
44822;SDS011;51097;51.984;5.650;2022-10-29T15:16:48;14.50;;;8.60;;
44822;SDS011;51097;51.984;5.650;2022-10-29T15:19:13;21.90;;;8.18;;
44822;SDS011;51097;51.984;5.650;2022-10-29T15:21:41;15.20;;;8.73;;
44822;SDS011;51097;51.984;5.650;2022-10-29T15:24:07;16.95;;;8.50;;
44822;SDS011;51097;51.984;5.650;2022-10-29T15:26:43;19.83;;;8.05;;
44822;SDS011;51097;51.984;5.650;2022-10-29T15:29:15;15.85;;;8.65;;
44822;SDS011;51097;51.984;5.650;2022-10-29T15:31:48;17.13;;;9.35;;
44822;SDS011;51097;51.984;5.650;2022-10-29T15:36:51;13.63;;;7.32;;
44822;SDS011;51097;51.984;5.650;2022-10-29T15:39:21;17.67;;;8.90;;
44822;SDS011;51097;51.984;5.650;2022-10-29T15:42:20;23.48;;;8.32;;
44822;SDS011;51097;51.984;5.650;2022-10-29T15:45:07;12.23;;;6.97;;
44822;SDS011;51097;51.984;5.650;2022-10-29T15:47:37;20.08;;;8.20;;
44822;SDS011;51097;51.984;5.650;2022-10-29T15:50:04;13.95;;;7.75;;
44822;SDS011;51097;51.984;5.650;2022-10-29T15:52:37;19.20;;;9.93;;
44822;SDS011;51097;51.984;5.650;2022-10-29T15:55:08;14.10;;;7.55;;
44822;SDS011;51097;51.984;5.650;2022-10-29T15:57:38;16.80;;;7.65;;
44822;SDS011;51097;51.984;5.650;2022-10-29T16:00:05;14.95;;;7.95;;
44822;SDS011;51097;51.984;5.650;2022-10-29T16:02:31;18.35;;;8.02;;
44822;SDS011;51097;51.984;5.650;2022-10-29T16:04:57;19.08;;;8.45;;
44822;SDS011;51097;51.984;5.650;2022-10-29T16:07:22;17.10;;;8.10;;
44822;SDS011;51097;51.984;5.650;2022-10-29T16:09:49;18.42;;;8.32;;
44822;SDS011;51097;51.984;5.650;2022-10-29T16:12:17;16.27;;;8.40;;
44822;SDS011;51097;51.984;5.650;2022-10-29T16:14:42;19.05;;;8.45;;
44822;SDS011;51097;51.984;5.650;2022-10-29T16:17:15;15.93;;;8.02;;
44822;SDS011;51097;51.984;5.650;2022-10-29T16:19:42;18.30;;;8.48;;
44822;SDS011;51097;51.984;5.650;2022-10-29T16:22:26;16.35;;;8.88;;
44822;SDS011;51097;51.984;5.650;2022-10-29T16:24:53;15.10;;;7.88;;
44822;SDS011;51097;51.984;5.650;2022-10-29T16:27:19;18.40;;;8.63;;
44822;SDS011;51097;51.984;5.650;2022-10-29T16:29:44;18.95;;;9.40;;
44822;SDS011;51097;51.984;5.650;2022-10-29T16:32:16;13.10;;;8.82;;
44822;SDS011;51097;51.984;5.650;2022-10-29T16:34:47;14.60;;;7.53;;
44822;SDS011;51097;51.984;5.650;2022-10-29T16:37:13;16.60;;;9.43;;
44822;SDS011;51097;51.984;5.650;2022-10-29T16:39:41;19.75;;;9.95;;
44822;SDS011;51097;51.984;5.650;2022-10-29T16:42:09;18.00;;;9.63;;
44822;SDS011;51097;51.984;5.650;2022-10-29T16:44:51;15.80;;;9.23;;
44822;SDS011;51097;51.984;5.650;2022-10-29T16:47:17;17.10;;;8.73;;
44822;SDS011;51097;51.984;5.650;2022-10-29T16:49:42;20.52;;;8.95;;
44822;SDS011;51097;51.984;5.650;2022-10-29T16:52:08;19.85;;;8.85;;
44822;SDS011;51097;51.984;5.650;2022-10-29T16:54:34;14.75;;;8.55;;
44822;SDS011;51097;51.984;5.650;2022-10-29T16:57:00;17.83;;;8.73;;
44822;SDS011;51097;51.984;5.650;2022-10-29T16:59:25;21.83;;;9.05;;
44822;SDS011;51097;51.984;5.650;2022-10-29T17:01:51;21.10;;;9.75;;